createdAt,value
2018-10-16T00:02:01.907Z,7.50
2018-10-16T00:07:06.111Z,8.30
2018-10-16T00:12:09.861Z,8.60
2018-10-16T00:17:13.748Z,8.67
2018-10-16T00:22:17.630Z,8.07
2018-10-16T00:27:21.461Z,8.60
2018-10-16T00:32:25.202Z,9.63
2018-10-16T00:37:29.036Z,8.87
2018-10-16T00:42:33.615Z,8.63
2018-10-16T00:47:39.189Z,9.17
2018-10-16T00:52:42.866Z,8.60
2018-10-16T00:57:46.636Z,8.23
2018-10-16T01:02:50.321Z,8.63
2018-10-16T01:07:54.056Z,8.63
2018-10-16T01:12:57.832Z,8.63
2018-10-16T01:18:01.931Z,9.03
2018-10-16T01:23:06.859Z,8.80
2018-10-16T01:28:11.264Z,9.30
2018-10-16T01:33:14.886Z,8.57
2018-10-16T01:38:18.828Z,8.63
2018-10-16T01:43:23.125Z,8.73
2018-10-16T01:48:26.940Z,9.00
2018-10-16T01:53:31.087Z,9.17
2018-10-16T01:58:35.154Z,9.10
2018-10-16T02:03:39.063Z,9.10
2018-10-16T02:08:42.878Z,8.67
2018-10-16T02:13:47.251Z,9.67
2018-10-16T02:19:12.963Z,8.47
2018-10-16T02:24:16.929Z,9.50
2018-10-16T02:29:20.644Z,9.87
2018-10-16T02:34:24.460Z,9.37
2018-10-16T02:39:48.959Z,9.23
2018-10-16T02:44:53.114Z,9.70
2018-10-16T02:49:56.897Z,9.67
2018-10-16T02:55:00.914Z,9.20
2018-10-16T03:00:04.776Z,8.90
2018-10-16T03:16:16.971Z,9.47
2018-10-16T03:21:20.649Z,9.60
2018-10-16T03:26:24.910Z,9.00
2018-10-16T03:31:28.666Z,9.57
2018-10-16T03:36:32.249Z,8.83
2018-10-16T03:41:36.066Z,8.27
2018-10-16T03:46:39.808Z,8.97
2018-10-16T03:51:43.644Z,9.77
2018-10-16T03:56:47.482Z,8.83
2018-10-16T04:01:51.647Z,9.50
2018-10-16T04:06:55.789Z,8.93
2018-10-16T04:11:59.639Z,9.83
2018-10-16T04:17:04.178Z,8.77
2018-10-16T04:22:07.974Z,9.60
2018-10-16T04:27:12.230Z,9.33
2018-10-16T04:32:15.999Z,9.30
2018-10-16T04:37:20.194Z,9.17
2018-10-16T04:42:23.948Z,9.57
2018-10-16T04:47:28.436Z,9.40
2018-10-16T04:52:32.451Z,9.27
2018-10-16T04:57:36.311Z,9.37
2018-10-16T05:02:41.335Z,10.10
2018-10-16T05:07:45.442Z,9.30
2018-10-16T05:12:49.655Z,9.37
2018-10-16T05:17:58.444Z,9.07
2018-10-16T05:23:02.549Z,10.07
2018-10-16T05:28:07.072Z,9.00
2018-10-16T05:33:10.848Z,9.93
2018-10-16T05:38:15.266Z,10.53
2018-10-16T05:43:19.821Z,9.13
2018-10-16T05:48:24.235Z,9.87
2018-10-16T05:53:28.004Z,9.43
2018-10-16T05:58:32.772Z,9.23
2018-10-16T06:03:36.465Z,9.70
2018-10-16T06:08:40.590Z,10.70
2018-10-16T06:13:44.415Z,10.77
2018-10-16T06:18:48.180Z,10.07
2018-10-16T06:23:51.943Z,9.67
2018-10-16T06:29:08.596Z,10.30
2018-10-16T06:34:12.770Z,9.93
2018-10-16T06:44:46.104Z,10.83
2018-10-16T06:49:50.410Z,10.23
2018-10-16T06:54:54.241Z,14.47
2018-10-16T06:59:58.481Z,10.03
2018-10-16T07:05:02.197Z,10.17
2018-10-16T07:10:07.417Z,10.43
2018-10-16T07:15:12.131Z,10.90
2018-10-16T07:20:16.273Z,10.07
2018-10-16T07:25:21.068Z,14.30
2018-10-16T07:30:25.240Z,10.77
2018-10-16T07:35:29.367Z,10.57
2018-10-16T07:40:33.427Z,18.60
2018-10-16T07:45:37.540Z,17.03
2018-10-16T07:50:41.721Z,15.23
2018-10-16T07:55:46.138Z,14.57
2018-10-16T08:00:50.697Z,15.60
2018-10-16T08:05:54.671Z,12.37
2018-10-16T08:10:58.629Z,12.43
2018-10-16T08:16:02.416Z,14.83
2018-10-16T08:21:07.064Z,16.40
2018-10-16T08:26:10.802Z,14.07
2018-10-16T08:31:14.603Z,12.37
2018-10-16T08:36:19.537Z,11.47
2018-10-16T08:41:27.422Z,10.93
2018-10-16T08:46:42.397Z,11.07
2018-10-16T08:52:00.690Z,9.33
2018-10-16T08:57:04.609Z,10.20
2018-10-16T09:02:08.706Z,9.67
2018-10-16T09:07:12.719Z,8.90
2018-10-16T09:12:16.541Z,8.63
2018-10-16T09:17:21.152Z,8.63
2018-10-16T09:22:25.515Z,8.93
2018-10-16T09:27:29.605Z,8.90
2018-10-16T09:32:34.061Z,8.20
2018-10-16T09:37:38.723Z,8.50
2018-10-16T09:42:42.630Z,8.47
2018-10-16T09:47:46.854Z,8.67
2018-10-16T09:52:50.634Z,7.77
2018-10-16T09:57:56.680Z,8.03
2018-10-16T10:03:00.665Z,8.20
2018-10-16T10:08:06.378Z,8.37
2018-10-16T10:13:10.887Z,7.80
2018-10-16T10:18:15.353Z,7.57
2018-10-16T10:23:19.681Z,7.60
2018-10-16T10:28:24.823Z,8.03
2018-10-16T10:33:29.252Z,7.57
2018-10-16T10:38:38.028Z,9.07
2018-10-16T10:43:41.772Z,8.90
2018-10-16T10:48:46.304Z,9.33
2018-10-16T10:53:50.437Z,8.33
2018-10-16T10:58:54.392Z,7.23
2018-10-16T11:03:58.579Z,7.30
2018-10-16T11:09:06.798Z,7.23
2018-10-16T11:14:10.530Z,6.60
2018-10-16T11:19:14.762Z,7.87
2018-10-16T11:24:18.595Z,7.17
2018-10-16T11:29:22.554Z,6.90
2018-10-16T11:34:26.880Z,6.50
2018-10-16T11:39:30.725Z,5.80
2018-10-16T11:44:35.121Z,6.60
2018-10-16T11:49:39.072Z,5.77
2018-10-16T11:54:43.240Z,4.80
2018-10-16T11:59:47.402Z,5.30
2018-10-16T12:04:51.184Z,5.73
2018-10-16T12:09:55.229Z,5.50
2018-10-16T12:14:59.516Z,5.90
2018-10-16T12:20:06.715Z,5.90
2018-10-16T12:25:10.992Z,6.80
2018-10-16T12:30:15.197Z,6.23
2018-10-16T12:35:18.839Z,6.00
2018-10-16T12:40:23.030Z,5.63
2018-10-16T12:45:27.040Z,5.83
2018-10-16T12:50:31.050Z,5.70
2018-10-16T12:55:35.108Z,6.33
2018-10-16T13:00:38.947Z,5.93
2018-10-16T13:05:49.228Z,6.07
2018-10-16T13:10:52.940Z,6.07
2018-10-16T13:15:58.927Z,5.87
2018-10-16T13:21:02.802Z,6.00
2018-10-16T13:26:06.731Z,5.70
2018-10-16T13:31:11.160Z,6.33
2018-10-16T13:36:15.917Z,6.10
2018-10-16T13:41:20.022Z,6.10
2018-10-16T13:46:24.468Z,6.07
2018-10-16T13:51:29.064Z,6.23
2018-10-16T13:56:39.244Z,6.17
2018-10-16T14:01:43.620Z,6.10
2018-10-16T14:06:47.977Z,6.47
2018-10-16T14:11:51.776Z,6.53
2018-10-16T14:16:55.739Z,6.50
2018-10-16T14:21:59.728Z,5.57
2018-10-16T14:27:06.026Z,6.00
2018-10-16T14:32:09.977Z,6.10
2018-10-16T14:37:14.833Z,6.63
2018-10-16T14:42:18.856Z,5.90
2018-10-16T14:47:22.544Z,5.50
2018-10-16T14:52:26.316Z,5.37
2018-10-16T14:57:38.683Z,6.03
2018-10-16T15:02:42.549Z,6.13
2018-10-16T15:07:46.642Z,5.57
2018-10-16T15:12:50.367Z,6.30
2018-10-16T15:17:54.768Z,6.10
2018-10-16T15:22:58.565Z,5.97
2018-10-16T15:28:02.997Z,6.73
2018-10-16T15:33:07.008Z,6.20
2018-10-16T15:38:10.904Z,6.43
2018-10-16T15:43:15.130Z,5.80
2018-10-16T15:48:18.969Z,6.30
2018-10-16T15:53:22.839Z,6.90
2018-10-16T15:58:27.398Z,6.87
2018-10-16T16:03:31.211Z,6.67
2018-10-16T16:08:35.016Z,6.43
2018-10-16T16:13:39.607Z,7.00
2018-10-16T16:18:43.405Z,7.10
2018-10-16T16:23:47.535Z,7.20
2018-10-16T16:28:51.995Z,7.47
2018-10-16T16:33:55.802Z,7.30
2018-10-16T16:38:59.941Z,8.00
2018-10-16T16:44:04.427Z,6.90
2018-10-16T16:49:08.107Z,7.73
2018-10-16T16:54:12.221Z,7.40
2018-10-16T16:59:16.374Z,8.47
2018-10-16T17:04:20.620Z,8.30
2018-10-16T17:09:24.840Z,8.43
2018-10-16T17:14:29.056Z,9.07
2018-10-16T17:19:33.167Z,8.90
2018-10-16T17:24:36.880Z,9.03
2018-10-16T17:29:40.774Z,8.20
2018-10-16T17:34:44.919Z,8.80
2018-10-16T17:39:48.731Z,9.43
2018-10-16T17:44:53.006Z,8.50
2018-10-16T17:49:57.280Z,9.23
2018-10-16T17:55:14.126Z,9.77
2018-10-16T18:00:19.073Z,8.67
2018-10-16T18:05:22.726Z,9.40
2018-10-16T18:10:26.879Z,8.93
2018-10-16T18:15:31.054Z,9.57
2018-10-16T18:20:35.278Z,9.10
2018-10-16T18:25:39.036Z,9.23
2018-10-16T18:30:43.039Z,9.43
2018-10-16T18:35:51.357Z,9.70
2018-10-16T18:40:55.084Z,9.70
2018-10-16T18:45:58.682Z,9.83
2018-10-16T18:51:02.389Z,9.43
2018-10-16T18:56:06.519Z,10.37
2018-10-16T19:01:10.420Z,10.43
2018-10-16T19:06:14.484Z,11.03
2018-10-16T19:11:18.309Z,11.20
2018-10-16T19:16:22.284Z,11.17
2018-10-16T19:21:26.603Z,10.57
2018-10-16T19:26:30.281Z,11.43
2018-10-16T19:31:34.351Z,10.17
2018-10-16T19:36:38.546Z,10.50
2018-10-16T19:41:42.713Z,10.80
2018-10-16T19:46:46.592Z,10.67
2018-10-16T19:51:51.044Z,11.37
2018-10-16T19:56:55.097Z,10.60
2018-10-16T20:01:58.906Z,10.57
2018-10-16T20:07:02.822Z,10.47
2018-10-16T20:12:07.445Z,10.30
2018-10-16T20:17:11.498Z,10.90
2018-10-16T20:22:15.388Z,11.53
2018-10-16T20:27:19.475Z,10.87
2018-10-16T20:32:23.642Z,10.93
2018-10-16T20:37:27.313Z,11.37
2018-10-16T20:42:31.512Z,11.50
2018-10-16T20:47:35.906Z,10.90
2018-10-16T20:52:40.047Z,10.80
2018-10-16T20:57:44.547Z,11.30
2018-10-16T21:02:48.848Z,11.40
2018-10-16T21:07:53.392Z,11.40
2018-10-16T21:12:57.520Z,11.50
2018-10-16T21:18:01.876Z,10.93
2018-10-16T21:23:06.387Z,10.97
2018-10-16T21:28:10.614Z,11.47
2018-10-16T21:33:14.447Z,12.13
2018-10-16T21:38:18.972Z,11.30
2018-10-16T21:43:23.322Z,11.57
2018-10-16T21:48:27.738Z,11.23
2018-10-16T21:53:32.175Z,11.10
2018-10-16T21:58:36.095Z,11.47
2018-10-16T22:03:40.763Z,12.37
2018-10-16T22:08:44.906Z,12.40
2018-10-16T22:13:48.682Z,12.53
2018-10-16T22:18:52.975Z,11.57
2018-10-16T22:23:57.460Z,11.87
2018-10-16T22:29:02.300Z,12.70
2018-10-16T22:34:06.476Z,11.67
2018-10-16T22:39:11.316Z,12.33
2018-10-16T22:44:15.802Z,11.97
2018-10-16T22:49:20.040Z,12.67
2018-10-16T22:54:23.853Z,11.70
2018-10-16T22:59:27.873Z,12.87
2018-10-16T23:04:31.758Z,12.97
2018-10-16T23:09:36.059Z,13.10
2018-10-16T23:14:39.878Z,12.40
2018-10-16T23:19:43.607Z,13.00
2018-10-16T23:24:47.318Z,12.50
2018-10-16T23:29:51.456Z,13.23
2018-10-16T23:34:55.231Z,12.43
2018-10-16T23:39:59.788Z,12.57
2018-10-16T23:45:03.918Z,12.53
2018-10-16T23:50:07.655Z,13.40
2018-10-16T23:55:11.871Z,13.13
